createdAt,value
2023-02-15T00:01:43.257Z,30.88
2023-02-15T00:04:10.988Z,30.75
2023-02-15T00:06:37.934Z,32.90
2023-02-15T00:09:05.339Z,33.38
2023-02-15T00:11:41.171Z,32.08
2023-02-15T00:14:12.933Z,32.55
2023-02-15T00:16:42.106Z,31.42
2023-02-15T00:19:10.590Z,33.15
2023-02-15T00:21:38.767Z,33.08
2023-02-15T00:24:08.341Z,32.47
2023-02-15T00:26:35.410Z,31.65
2023-02-15T00:29:02.543Z,30.40
2023-02-15T00:31:34.249Z,30.00
2023-02-15T00:34:08.674Z,30.20
2023-02-15T00:36:36.098Z,30.38
2023-02-15T00:39:03.979Z,31.05
2023-02-15T00:41:31.134Z,29.67
2023-02-15T00:43:58.354Z,29.20
2023-02-15T00:46:25.360Z,32.00
2023-02-15T00:48:52.202Z,30.80
2023-02-15T00:51:19.175Z,31.25
2023-02-15T00:53:46.088Z,30.42
2023-02-15T00:56:14.195Z,31.48
2023-02-15T00:58:41.070Z,31.63
2023-02-15T01:01:12.562Z,29.92
2023-02-15T01:03:40.583Z,28.65
2023-02-15T01:06:07.416Z,31.48
2023-02-15T01:08:34.630Z,30.45
2023-02-15T01:11:06.803Z,30.20
2023-02-15T01:13:34.178Z,31.55
2023-02-15T01:16:01.589Z,31.38
2023-02-15T01:18:28.749Z,31.02
2023-02-15T01:20:57.183Z,29.45
2023-02-15T01:23:24.254Z,31.00
2023-02-15T01:25:51.469Z,31.00
2023-02-15T01:28:18.583Z,30.05
2023-02-15T01:30:45.569Z,30.38
2023-02-15T01:33:18.712Z,30.27
2023-02-15T01:35:47.185Z,30.58
2023-02-15T01:38:15.153Z,30.85
2023-02-15T01:40:42.616Z,30.88
2023-02-15T01:43:13.366Z,31.85
2023-02-15T01:45:40.824Z,32.55
2023-02-15T01:48:26.374Z,31.52
2023-02-15T01:50:57.598Z,30.35
2023-02-15T01:53:40.403Z,30.55
2023-02-15T01:56:18.300Z,30.85
2023-02-15T01:58:51.935Z,29.92
2023-02-15T02:04:05.146Z,28.90
2023-02-15T02:06:34.529Z,28.85
2023-02-15T02:09:02.186Z,29.55
2023-02-15T02:11:29.306Z,31.20
2023-02-15T02:13:57.089Z,29.83
2023-02-15T03:02:35.176Z,30.52
2023-02-15T03:05:09.903Z,29.75
2023-02-15T03:07:37.938Z,29.27
2023-02-15T03:10:08.357Z,34.22
2023-02-15T03:12:41.558Z,32.95
2023-02-15T03:15:17.242Z,31.73
2023-02-15T03:17:48.539Z,30.70
2023-02-15T03:20:31.808Z,31.20
2023-02-15T03:23:27.346Z,29.88
2023-02-15T03:25:59.595Z,31.48
2023-02-15T03:28:37.710Z,29.88
2023-02-15T03:31:07.485Z,29.30
2023-02-15T03:33:40.950Z,30.35
2023-02-15T03:36:19.995Z,30.90
2023-02-15T03:39:00.852Z,31.27
2023-02-15T03:41:38.131Z,33.15
2023-02-15T03:44:15.161Z,31.77
2023-02-15T03:46:51.741Z,31.38
2023-02-15T03:49:25.934Z,29.13
2023-02-15T03:51:56.467Z,28.88
2023-02-15T03:54:46.979Z,29.88
2023-02-15T03:57:50.761Z,30.33
2023-02-15T04:00:38.237Z,30.83
2023-02-15T04:03:28.289Z,30.23
2023-02-15T04:05:55.347Z,30.35
2023-02-15T04:08:42.172Z,30.05
2023-02-15T04:11:09.303Z,28.70
2023-02-15T04:13:36.625Z,29.40
2023-02-15T04:16:07.676Z,28.52
2023-02-15T04:19:01.564Z,28.13
2023-02-15T04:21:49.378Z,28.50
2023-02-15T04:24:35.472Z,27.65
2023-02-15T04:27:03.390Z,27.80
2023-02-15T04:29:31.092Z,29.55
2023-02-15T04:32:00.070Z,29.25
2023-02-15T04:34:27.590Z,29.08
2023-02-15T04:36:54.652Z,28.30
2023-02-15T04:39:21.602Z,27.20
2023-02-15T04:41:49.016Z,27.52
2023-02-15T04:44:16.405Z,28.15
2023-02-15T04:46:43.523Z,28.33
2023-02-15T04:49:11.533Z,28.70
2023-02-15T04:51:39.037Z,29.35
2023-02-15T04:54:06.221Z,29.58
2023-02-15T04:56:34.965Z,29.02
2023-02-15T04:59:02.300Z,29.63
2023-02-15T05:01:29.440Z,30.58
2023-02-15T05:03:56.577Z,28.58
2023-02-15T05:06:24.191Z,28.63
2023-02-15T05:08:51.663Z,28.13
2023-02-15T05:11:19.014Z,28.52
2023-02-15T05:13:46.190Z,28.58
2023-02-15T05:16:14.277Z,28.88
2023-02-15T05:18:42.510Z,28.88
2023-02-15T05:21:10.220Z,27.77
2023-02-15T05:23:37.502Z,28.13
2023-02-15T05:26:23.267Z,28.83
2023-02-15T05:28:50.818Z,29.70
2023-02-15T05:31:19.921Z,31.90
2023-02-15T05:33:50.680Z,28.80
2023-02-15T05:36:25.255Z,30.27
2023-02-15T05:38:55.767Z,28.73
2023-02-15T05:41:23.083Z,30.77
2023-02-15T05:43:50.169Z,31.88
2023-02-15T05:46:17.154Z,31.20
2023-02-15T05:48:44.343Z,30.70
2023-02-15T05:51:14.279Z,31.08
2023-02-15T05:53:41.428Z,32.63
2023-02-15T05:56:13.017Z,30.73
2023-02-15T05:58:41.860Z,34.60
2023-02-15T06:01:18.242Z,35.07
2023-02-15T06:03:46.864Z,35.13
2023-02-15T06:06:14.193Z,35.65
2023-02-15T06:08:41.592Z,35.25
2023-02-15T06:11:08.880Z,34.00
2023-02-15T06:13:38.513Z,32.78
2023-02-15T06:16:07.259Z,31.80
2023-02-15T06:18:34.497Z,30.08
2023-02-15T06:21:01.408Z,31.38
2023-02-15T06:23:29.016Z,30.95
2023-02-15T06:25:55.928Z,31.63
2023-02-15T06:28:23.145Z,30.63
2023-02-15T06:30:50.377Z,29.88
2023-02-15T06:33:17.425Z,30.35
2023-02-15T06:35:45.521Z,29.45
2023-02-15T06:38:12.545Z,30.55
2023-02-15T06:40:39.457Z,30.88
2023-02-15T06:43:06.735Z,30.67
2023-02-15T06:45:33.767Z,31.13
2023-02-15T06:48:00.755Z,31.80
2023-02-15T06:50:27.664Z,33.05
2023-02-15T06:52:59.163Z,32.55
2023-02-15T06:55:26.839Z,32.35
2023-02-15T06:57:53.976Z,32.28
2023-02-15T07:00:23.231Z,31.95
2023-02-15T07:02:58.642Z,30.73
2023-02-15T07:05:31.767Z,30.85
2023-02-15T07:08:00.109Z,30.70
2023-02-15T07:10:27.966Z,30.92
2023-02-15T07:12:55.295Z,31.02
2023-02-15T07:15:22.399Z,32.38
2023-02-15T07:17:50.320Z,31.33
2023-02-15T07:20:20.944Z,36.97
2023-02-15T07:22:49.017Z,32.60
2023-02-15T07:25:16.120Z,34.03
2023-02-15T07:27:43.316Z,34.22
2023-02-15T07:30:13.489Z,34.28
2023-02-15T07:33:01.846Z,33.60
2023-02-15T07:35:30.533Z,31.65
2023-02-15T07:37:57.510Z,34.33
2023-02-15T07:40:24.689Z,33.58
2023-02-15T07:42:55.836Z,32.70
2023-02-15T07:45:23.249Z,35.28
2023-02-15T07:47:50.276Z,34.47
2023-02-15T07:50:17.435Z,33.92
2023-02-15T07:52:44.424Z,36.15
2023-02-15T07:55:13.784Z,34.75
2023-02-15T07:57:45.786Z,33.05
2023-02-15T08:00:14.644Z,34.78
2023-02-15T08:02:42.689Z,34.13
2023-02-15T08:05:09.686Z,33.70
2023-02-15T08:07:36.580Z,33.58
2023-02-15T08:10:03.659Z,35.05
2023-02-15T08:12:30.561Z,34.03
2023-02-15T08:14:59.901Z,35.05
2023-02-15T08:17:26.930Z,35.38
2023-02-15T08:19:53.865Z,35.00
2023-02-15T08:22:20.856Z,35.45
2023-02-15T08:24:49.200Z,33.70
2023-02-15T08:27:16.157Z,36.90
2023-02-15T08:29:43.336Z,35.65
2023-02-15T08:32:13.223Z,35.38
2023-02-15T08:34:42.841Z,35.03
2023-02-15T08:37:11.311Z,37.28
2023-02-15T08:39:38.705Z,39.78
2023-02-15T08:42:07.023Z,39.05
2023-02-15T08:44:34.225Z,37.97
2023-02-15T08:47:05.292Z,36.35
2023-02-15T08:49:33.135Z,39.90
2023-02-15T08:52:00.726Z,39.28
2023-02-15T08:54:27.806Z,37.55
2023-02-15T08:56:55.044Z,38.53
2023-02-15T08:59:23.954Z,39.05
2023-02-15T09:01:52.898Z,41.50
2023-02-15T09:04:21.551Z,41.58
2023-02-15T09:06:50.548Z,39.90
2023-02-15T09:09:21.012Z,40.78
2023-02-15T09:11:55.209Z,40.50
2023-02-15T09:14:26.013Z,40.97
2023-02-15T09:16:53.913Z,43.22
2023-02-15T09:19:22.980Z,41.63
2023-02-15T09:21:49.837Z,38.80
2023-02-15T09:24:17.829Z,40.65
2023-02-15T09:26:46.931Z,40.63
2023-02-15T09:29:14.768Z,41.50
2023-02-15T09:31:45.418Z,41.28
2023-02-15T09:34:14.210Z,41.05
2023-02-15T09:36:42.046Z,39.92
2023-02-15T09:39:18.137Z,38.67
2023-02-15T09:42:12.928Z,40.25
2023-02-15T09:44:58.551Z,39.92
2023-02-15T09:47:28.466Z,42.30
2023-02-15T09:49:55.476Z,42.25
2023-02-15T09:53:00.222Z,44.63
2023-02-15T09:56:13.320Z,41.97
2023-02-15T09:58:58.260Z,41.53
2023-02-15T10:02:01.901Z,40.30
2023-02-15T10:05:12.984Z,41.70
2023-02-15T10:08:21.542Z,41.47
2023-02-15T10:11:42.393Z,39.40
2023-02-15T10:14:38.897Z,41.42
2023-02-15T10:17:27.018Z,42.05
2023-02-15T10:20:08.953Z,41.30
2023-02-15T10:22:48.862Z,40.53
2023-02-15T10:25:34.548Z,40.75
2023-02-15T10:28:07.115Z,40.92
2023-02-15T10:30:50.125Z,40.92
2023-02-15T10:33:43.781Z,40.28
2023-02-15T10:36:28.363Z,42.70
2023-02-15T10:39:13.682Z,40.60
2023-02-15T10:42:19.027Z,41.30
2023-02-15T10:44:51.992Z,39.00
2023-02-15T10:47:28.970Z,41.75
2023-02-15T10:50:15.172Z,39.35
2023-02-15T10:53:14.969Z,39.50
2023-02-15T10:55:51.077Z,42.28
2023-02-15T10:58:41.801Z,39.85
2023-02-15T11:01:36.813Z,39.70
2023-02-15T11:04:46.514Z,40.50
2023-02-15T11:12:21.128Z,40.00
2023-02-15T11:14:59.866Z,41.85
2023-02-15T11:17:39.454Z,38.43
2023-02-15T11:20:32.113Z,38.63
2023-02-15T11:23:01.362Z,38.28
2023-02-15T11:25:33.671Z,38.28
2023-02-15T11:28:04.741Z,36.92
2023-02-15T11:30:45.398Z,36.78
2023-02-15T11:33:23.554Z,38.33
2023-02-15T11:36:27.109Z,37.53
2023-02-15T11:39:06.085Z,33.35
2023-02-15T11:41:37.336Z,32.92
2023-02-15T11:44:19.050Z,34.25
2023-02-15T11:46:45.949Z,32.72
2023-02-15T11:49:24.205Z,33.70
2023-02-15T11:51:51.932Z,33.90
2023-02-15T11:54:27.781Z,32.30
2023-02-15T11:57:00.637Z,32.40
2023-02-15T11:59:33.420Z,30.52
2023-02-15T12:02:00.222Z,29.20
2023-02-15T12:04:44.404Z,26.60
2023-02-15T12:07:32.881Z,31.67
2023-02-15T12:10:35.518Z,29.30
2023-02-15T12:13:13.553Z,32.95
2023-02-15T12:15:47.740Z,30.55
2023-02-15T12:18:38.613Z,30.15
2023-02-15T12:21:33.865Z,27.80
2023-02-15T12:24:24.063Z,28.98
2023-02-15T12:27:14.743Z,30.92
2023-02-15T12:29:45.401Z,27.65
2023-02-15T12:32:23.991Z,28.00
2023-02-15T12:34:53.629Z,26.67
2023-02-15T12:37:33.086Z,25.13
2023-02-15T12:40:02.206Z,24.25
2023-02-15T12:42:43.037Z,25.05
2023-02-15T12:45:33.770Z,25.80
2023-02-15T12:48:13.678Z,26.73
2023-02-15T12:50:41.733Z,26.13
2023-02-15T12:53:30.727Z,26.90
2023-02-15T12:56:03.763Z,26.88
2023-02-15T12:58:31.530Z,27.73
2023-02-15T13:01:10.501Z,26.80
2023-02-15T13:03:40.412Z,27.08
2023-02-15T13:06:08.971Z,25.33
2023-02-15T13:08:47.081Z,24.67
2023-02-15T13:11:26.459Z,25.30
2023-02-15T13:13:57.045Z,23.92
2023-02-15T13:16:36.416Z,24.63
2023-02-15T13:19:13.433Z,23.92
2023-02-15T13:21:44.734Z,23.92
2023-02-15T13:24:38.952Z,24.67
2023-02-15T13:27:15.414Z,24.55
2023-02-15T13:29:52.488Z,23.05
2023-02-15T13:32:37.263Z,23.67
2023-02-15T13:35:08.140Z,23.73
2023-02-15T13:37:34.937Z,23.77
2023-02-15T13:40:03.975Z,23.02
2023-02-15T13:42:40.492Z,22.77
2023-02-15T13:45:34.938Z,24.38
2023-02-15T13:48:21.325Z,22.88
2023-02-15T13:50:50.900Z,22.15
2023-02-15T13:53:36.456Z,24.58
2023-02-15T13:56:28.325Z,23.15
2023-02-15T13:59:14.560Z,22.45
2023-02-15T14:01:57.958Z,21.73
2023-02-15T14:04:43.255Z,21.42
2023-02-15T14:07:31.585Z,21.30
2023-02-15T14:10:07.742Z,22.00
2023-02-15T14:13:10.139Z,24.25
2023-02-15T14:15:43.263Z,21.08
2023-02-15T14:18:26.362Z,21.45
2023-02-15T14:21:18.038Z,21.92
2023-02-15T14:24:25.662Z,21.23
2023-02-15T14:27:01.890Z,21.50
2023-02-15T14:29:49.435Z,20.98
2023-02-15T14:32:26.383Z,19.55
2023-02-15T14:35:02.718Z,20.80
2023-02-15T14:37:44.807Z,19.48
2023-02-15T14:41:05.138Z,20.70
2023-02-15T14:43:51.176Z,20.60
2023-02-15T14:46:22.719Z,20.73
2023-02-15T14:48:52.757Z,19.33
2023-02-15T14:51:43.703Z,19.70
2023-02-15T14:54:33.739Z,19.73
2023-02-15T14:57:03.585Z,19.98
2023-02-15T15:02:09.565Z,19.15
2023-02-15T15:04:44.344Z,18.75
2023-02-15T15:07:23.260Z,18.75
2023-02-15T15:10:02.748Z,17.50
2023-02-15T15:12:36.676Z,19.02
2023-02-15T15:15:05.129Z,18.20
2023-02-15T15:17:37.513Z,18.63
2023-02-15T15:20:12.470Z,18.85
2023-02-15T15:22:40.044Z,19.00
2023-02-15T15:25:32.141Z,18.60
2023-02-15T15:27:59.107Z,17.58
2023-02-15T15:30:26.201Z,18.65
2023-02-15T15:32:56.462Z,17.23
2023-02-15T15:35:42.068Z,18.13
2023-02-15T15:38:15.141Z,17.60
2023-02-15T15:40:52.375Z,17.08
2023-02-15T15:43:49.827Z,16.92
2023-02-15T15:46:32.289Z,18.50
2023-02-15T15:49:16.440Z,16.80
2023-02-15T15:51:44.811Z,18.23
2023-02-15T15:54:20.932Z,17.38
2023-02-15T15:56:54.836Z,16.67
2023-02-15T15:59:31.289Z,18.02
2023-02-15T16:02:05.705Z,17.92
2023-02-15T16:04:34.945Z,17.23
2023-02-15T16:07:23.522Z,17.55
2023-02-15T16:10:00.849Z,16.73
2023-02-15T16:12:30.361Z,16.95
2023-02-15T16:14:57.790Z,16.50
2023-02-15T16:17:32.742Z,15.98
2023-02-15T16:20:06.880Z,17.13
2023-02-15T16:22:34.738Z,15.55
2023-02-15T16:25:43.186Z,19.27
2023-02-15T16:28:13.916Z,18.85
2023-02-15T16:30:43.068Z,17.48
2023-02-15T16:33:16.032Z,17.50
2023-02-15T16:36:04.322Z,17.58
2023-02-15T16:38:43.835Z,17.65
2023-02-15T16:41:16.603Z,17.63
2023-02-15T16:43:47.124Z,17.73
2023-02-15T16:46:24.599Z,17.88
2023-02-15T16:48:54.794Z,18.52
2023-02-15T16:51:26.069Z,18.58
2023-02-15T16:53:56.527Z,18.40
2023-02-15T16:56:31.674Z,20.55
2023-02-15T16:58:59.726Z,18.65
2023-02-15T17:01:30.839Z,18.33
2023-02-15T17:04:14.745Z,19.88
2023-02-15T17:06:42.064Z,17.65
2023-02-15T17:09:21.748Z,21.15
2023-02-15T17:14:22.019Z,21.83
2023-02-15T17:16:55.306Z,20.48
2023-02-15T17:19:34.822Z,21.30
2023-02-15T17:22:07.630Z,20.95
2023-02-15T17:24:43.356Z,23.00
2023-02-15T17:27:16.962Z,21.88
2023-02-15T17:29:59.395Z,21.35
2023-02-15T17:32:29.048Z,21.00
2023-02-15T17:35:22.633Z,21.13
2023-02-15T17:37:50.972Z,24.48
2023-02-15T17:40:20.434Z,24.33
2023-02-15T17:42:47.707Z,23.73
2023-02-15T17:45:15.578Z,23.45
2023-02-15T17:47:43.777Z,23.25
2023-02-15T17:50:24.651Z,21.23
2023-02-15T17:52:53.211Z,21.08
2023-02-15T17:55:41.241Z,21.95
2023-02-15T17:58:11.065Z,22.05
2023-02-15T18:01:01.290Z,21.52
2023-02-15T18:03:58.267Z,21.98
2023-02-15T18:06:44.358Z,21.73
2023-02-15T18:09:35.079Z,20.38
2023-02-15T18:12:02.503Z,22.50
2023-02-15T18:14:29.435Z,23.63
2023-02-15T18:16:56.548Z,25.30
2023-02-15T18:19:26.101Z,27.20
2023-02-15T18:21:55.693Z,29.33
2023-02-15T18:24:25.047Z,28.58
2023-02-15T18:26:53.796Z,31.88
2023-02-15T18:29:21.514Z,34.03
2023-02-15T18:31:53.838Z,34.53
2023-02-15T18:34:33.748Z,29.77
2023-02-15T18:37:03.045Z,27.67
2023-02-15T18:39:46.616Z,30.05
2023-02-15T18:42:31.961Z,30.60
2023-02-15T18:45:21.079Z,34.40
2023-02-15T18:47:48.988Z,35.38
2023-02-15T18:50:18.602Z,35.85
2023-02-15T18:52:47.806Z,34.08
2023-02-15T18:55:23.152Z,32.25
2023-02-15T18:57:54.498Z,30.35
2023-02-15T19:00:25.897Z,30.23
2023-02-15T19:02:54.014Z,29.85
2023-02-15T19:05:22.486Z,31.35
2023-02-15T19:07:53.437Z,34.65
2023-02-15T19:10:25.701Z,33.22
2023-02-15T19:13:04.077Z,32.63
2023-02-15T19:15:31.338Z,31.17
2023-02-15T19:18:01.692Z,33.28
2023-02-15T19:20:38.922Z,34.28
2023-02-15T19:23:19.050Z,36.55
2023-02-15T19:25:49.191Z,37.50
2023-02-15T19:28:31.251Z,38.50
2023-02-15T19:30:58.221Z,35.35
2023-02-15T19:33:25.292Z,32.63
2023-02-15T19:35:57.190Z,33.40
2023-02-15T19:38:32.224Z,34.30
2023-02-15T19:41:06.729Z,35.75
2023-02-15T19:43:34.886Z,33.00
2023-02-15T19:46:02.140Z,33.30
2023-02-15T19:48:29.809Z,32.88
2023-02-15T19:50:57.244Z,35.47
2023-02-15T19:53:28.583Z,32.20
2023-02-15T19:55:55.706Z,32.80
2023-02-15T19:58:22.794Z,36.45
2023-02-15T20:00:51.299Z,37.33
2023-02-15T20:03:18.211Z,40.47
2023-02-15T20:05:45.541Z,42.00
2023-02-15T20:08:23.171Z,41.38
2023-02-15T20:10:50.380Z,40.85
2023-02-15T20:13:19.719Z,40.80
2023-02-15T20:15:47.382Z,40.05
2023-02-15T20:18:14.548Z,41.10
2023-02-15T20:20:53.667Z,37.85
2023-02-15T20:23:33.814Z,38.53
2023-02-15T20:26:02.953Z,37.42
2023-02-15T20:28:31.866Z,35.97
2023-02-15T20:30:59.628Z,38.93
2023-02-15T20:33:26.876Z,36.35
2023-02-15T20:35:53.752Z,39.42
2023-02-15T20:38:25.412Z,39.38
2023-02-15T20:41:12.218Z,35.80
2023-02-15T20:43:40.039Z,38.20
2023-02-15T20:46:07.560Z,38.85
2023-02-15T20:48:34.834Z,38.78
2023-02-15T20:51:02.410Z,40.58
2023-02-15T20:53:29.827Z,45.10
2023-02-15T20:55:56.970Z,49.17
2023-02-15T20:58:29.803Z,46.72
2023-02-15T21:00:58.977Z,48.35
2023-02-15T21:03:31.192Z,41.35
2023-02-15T21:05:59.064Z,39.70
2023-02-15T21:08:26.624Z,37.40
2023-02-15T21:10:54.092Z,38.67
2023-02-15T21:13:32.565Z,34.80
2023-02-15T21:16:00.610Z,35.25
2023-02-15T21:18:31.167Z,36.03
2023-02-15T21:21:01.029Z,37.72
2023-02-15T21:23:38.485Z,42.47
2023-02-15T21:26:06.117Z,42.20
2023-02-15T21:28:32.931Z,38.72
2023-02-15T21:31:00.065Z,35.08
2023-02-15T21:33:27.479Z,38.35
2023-02-15T21:35:56.709Z,37.42
2023-02-15T21:38:26.177Z,36.53
2023-02-15T21:40:53.102Z,37.90
2023-02-15T21:43:43.038Z,38.33
2023-02-15T21:46:36.932Z,37.58
2023-02-15T21:49:06.916Z,43.78
2023-02-15T21:51:53.265Z,42.60
2023-02-15T21:54:21.012Z,43.40
2023-02-15T21:56:50.923Z,42.70
2023-02-15T21:59:18.769Z,41.45
2023-02-15T22:01:48.932Z,42.63
2023-02-15T22:04:25.287Z,41.30
2023-02-15T22:06:52.553Z,44.65
2023-02-15T22:09:22.640Z,45.10
2023-02-15T22:11:51.107Z,41.67
2023-02-15T22:14:38.245Z,40.40
2023-02-15T22:17:20.581Z,38.90
2023-02-15T22:19:49.423Z,38.30
2023-02-15T22:22:17.276Z,35.33
2023-02-15T22:24:45.175Z,35.10
2023-02-15T22:27:25.674Z,32.90
2023-02-15T22:29:53.463Z,33.78
2023-02-15T22:32:23.790Z,35.25
2023-02-15T22:34:51.804Z,33.13
2023-02-15T22:37:18.987Z,33.10
2023-02-15T22:39:45.911Z,34.55
2023-02-15T22:42:25.735Z,37.88
2023-02-15T22:44:54.859Z,38.58
2023-02-15T22:47:24.274Z,37.42
2023-02-15T22:49:51.427Z,36.63
2023-02-15T22:52:18.867Z,35.10
2023-02-15T22:54:46.152Z,34.00
2023-02-15T22:57:23.153Z,34.92
2023-02-15T22:59:50.089Z,34.08
2023-02-15T23:02:17.286Z,33.42
2023-02-15T23:04:45.278Z,33.65
2023-02-15T23:07:17.097Z,34.10
2023-02-15T23:09:44.793Z,35.50
2023-02-15T23:12:23.812Z,34.65
2023-02-15T23:14:51.123Z,37.33
2023-02-15T23:17:18.049Z,40.85
2023-02-15T23:19:45.087Z,37.90
2023-02-15T23:22:16.786Z,36.72
2023-02-15T23:24:49.207Z,36.15
2023-02-15T23:27:37.225Z,38.08
2023-02-15T23:30:06.228Z,36.80
2023-02-15T23:32:33.263Z,36.22
2023-02-15T23:35:00.101Z,37.22
2023-02-15T23:37:27.233Z,38.13
2023-02-15T23:40:12.632Z,39.55
2023-02-15T23:42:39.522Z,39.65
2023-02-15T23:45:23.776Z,37.58
2023-02-15T23:48:09.169Z,34.42
2023-02-15T23:50:36.057Z,33.72
2023-02-15T23:53:03.706Z,32.97
2023-02-15T23:55:39.274Z,32.30
2023-02-15T23:58:11.637Z,32.40
